Time,TemperatureF,DewpointF,PressureIn,WindDirection,WindDirectionDegrees,WindSpeedMPH,WindSpeedGustMPH,Humidity,HourlyPrecipIn,Conditions,Clouds,dailyrainin,SolarRadiationWatts/m^2,SoftwareType,DateUTC
2013-05-26 00:00:00,70.1,65.4,29.74,North,0,4.0,7.0,85,0.00,,---,0.00,0.00,VWS V14.01,2013-05-26 05:00:00,
2013-05-26 00:05:00,69.9,65.5,29.74,North,0,7.0,11.0,86,0.00,,---,0.00,0.00,VWS V14.01,2013-05-26 05:05:00,
2013-05-26 00:10:00,69.9,65.5,29.74,North,0,6.0,8.0,86,0.00,,---,0.00,0.00,VWS V14.01,2013-05-26 05:10:00,
2013-05-26 00:15:00,69.9,65.5,29.74,North,0,8.0,11.0,86,0.00,,---,0.00,0.00,VWS V14.01,2013-05-26 05:15:00,
2013-05-26 00:20:00,69.8,65.4,29.74,North,0,6.0,9.0,86,0.00,,---,0.00,0.00,VWS V14.01,2013-05-26 05:20:00,
2013-05-26 00:25:00,69.8,65.4,29.74,NNW,338,7.0,10.0,86,0.00,,---,0.00,0.00,VWS V14.01,2013-05-26 05:25:00,
2013-05-26 00:30:00,69.8,65.4,29.72,NNW,338,7.0,11.0,86,0.00,,---,0.00,0.00,VWS V14.01,2013-05-26 05:30:00,
2013-05-26 00:35:00,69.8,65.4,29.72,North,0,9.0,13.0,86,0.00,,---,0.00,0.00,VWS V14.01,2013-05-26 05:35:00,
2013-05-26 00:40:00,69.8,65.4,29.72,North,0,9.0,12.0,86,0.00,,---,0.00,0.00,VWS V14.01,2013-05-26 05:40:00,
2013-05-26 00:45:00,69.8,65.4,29.72,North,0,8.0,13.0,86,0.00,,---,0.00,0.00,VWS V14.01,2013-05-26 05:45:00,
2013-05-26 00:50:00,69.8,65.4,29.72,NNW,338,11.0,18.0,86,0.00,,---,0.00,0.00,VWS V14.01,2013-05-26 05:50:00,
2013-05-26 00:55:00,69.8,65.1,29.72,NNW,338,10.0,14.0,85,0.00,,---,0.00,0.00,VWS V14.01,2013-05-26 05:55:00,
2013-05-26 01:00:00,69.8,65.1,29.73,North,0,10.0,16.0,85,0.00,,---,0.00,0.00,VWS V14.01,2013-05-26 06:00:00,
2013-05-26 01:05:00,69.8,65.1,29.73,SSW,202,11.0,18.0,85,0.00,,---,0.00,0.00,VWS V14.01,2013-05-26 06:05:00,
2013-05-26 01:10:00,69.8,65.1,29.73,NW,315,8.0,11.0,85,0.00,,---,0.00,0.00,VWS V14.01,2013-05-26 06:10:00,
2013-05-26 01:15:00,69.8,65.1,29.74,SSE,158,6.0,10.0,85,0.00,,---,0.00,0.00,VWS V14.01,2013-05-26 06:15:00,
2013-05-26 01:20:00,69.6,64.9,29.74,North,0,5.0,9.0,85,0.00,,---,0.00,0.00,VWS V14.01,2013-05-26 06:20:00,
2013-05-26 01:25:00,69.6,64.9,29.74,North,0,6.0,12.0,85,0.00,,---,0.00,0.00,VWS V14.01,2013-05-26 06:25:00,
2013-05-26 01:30:00,69.8,65.1,29.75,North,0,6.0,10.0,85,0.00,,---,0.00,0.00,VWS V14.01,2013-05-26 06:30:00,
2013-05-26 01:35:00,69.6,64.6,29.75,North,0,6.0,9.0,84,0.00,,---,0.00,0.00,VWS V14.01,2013-05-26 06:35:00,
2013-05-26 01:40:00,69.6,64.6,29.75,North,0,6.0,10.0,84,0.00,,---,0.00,0.00,VWS V14.01,2013-05-26 06:40:00,
2013-05-26 01:45:00,69.4,64.7,29.74,North,0,8.0,11.0,85,0.00,,---,0.00,0.00,VWS V14.01,2013-05-26 06:45:00,
2013-05-26 01:50:00,69.4,64.7,29.74,North,0,9.0,12.0,85,0.00,,---,0.00,0.00,VWS V14.01,2013-05-26 06:50:00,
2013-05-26 01:55:00,69.4,64.7,29.74,North,0,9.0,13.0,85,0.00,,---,0.00,0.00,VWS V14.01,2013-05-26 06:55:00,
2013-05-26 02:00:00,69.3,64.6,29.75,SSW,202,10.0,14.0,85,0.00,,---,0.00,0.00,VWS V14.01,2013-05-26 07:00:00,
2013-05-26 02:05:00,69.3,64.3,29.75,South,180,10.0,13.0,84,0.00,,---,0.00,0.00,VWS V14.01,2013-05-26 07:05:00,
2013-05-26 02:10:00,69.1,64.1,29.75,South,180,12.0,14.0,84,0.00,,---,0.00,0.00,VWS V14.01,2013-05-26 07:10:00,
2013-05-26 02:15:00,69.1,64.1,29.74,South,180,11.0,13.0,84,0.00,,---,0.00,0.00,VWS V14.01,2013-05-26 07:15:00,
2013-05-26 02:20:00,69.1,64.1,29.74,South,180,12.0,16.0,84,0.00,,---,0.00,0.00,VWS V14.01,2013-05-26 07:20:00,
2013-05-26 02:25:00,68.9,63.9,29.74,South,180,11.0,13.0,84,0.00,,---,0.00,0.00,VWS V14.01,2013-05-26 07:25:00,
2013-05-26 02:30:00,68.9,63.9,29.75,South,180,13.0,20.0,84,0.00,,---,0.00,0.00,VWS V14.01,2013-05-26 07:30:00,
2013-05-26 02:35:00,68.9,63.9,29.75,South,180,13.0,18.0,84,0.00,,---,0.00,0.00,VWS V14.01,2013-05-26 07:35:00,
2013-05-26 02:40:00,68.9,63.9,29.75,South,180,13.0,18.0,84,0.00,,---,0.00,0.00,VWS V14.01,2013-05-26 07:40:00,
2013-05-26 02:45:00,68.9,63.9,29.75,South,180,15.0,21.0,84,0.00,,---,0.00,0.00,VWS V14.01,2013-05-26 07:45:00,
2013-05-26 02:50:00,68.9,63.9,29.75,South,180,13.0,18.0,84,0.00,,---,0.00,0.00,VWS V14.01,2013-05-26 07:50:00,
2013-05-26 02:55:00,68.8,63.8,29.75,South,180,14.0,21.0,84,0.00,,---,0.00,0.00,VWS V14.01,2013-05-26 07:55:00,
2013-05-26 03:00:00,68.8,63.8,29.74,South,180,12.0,18.0,84,0.00,,---,0.00,0.00,VWS V14.01,2013-05-26 08:00:00,
2013-05-26 03:05:00,68.8,63.8,29.74,South,180,13.0,20.0,84,0.00,,---,0.00,0.00,VWS V14.01,2013-05-26 08:05:00,
2013-05-26 03:10:00,68.6,63.2,29.74,South,180,15.0,22.0,83,0.00,,---,0.00,0.00,VWS V14.01,2013-05-26 08:10:00,
2013-05-26 03:15:00,68.8,63.4,29.73,South,180,15.0,20.0,83,0.00,,---,0.00,0.00,VWS V14.01,2013-05-26 08:15:00,
2013-05-26 03:20:00,68.8,63.4,29.73,South,180,15.0,27.0,83,0.00,,---,0.00,0.00,VWS V14.01,2013-05-26 08:20:00,
2013-05-26 03:25:00,68.6,63.2,29.73,South,180,17.0,19.0,83,0.00,,---,0.00,0.00,VWS V14.01,2013-05-26 08:25:00,
2013-05-26 03:30:00,68.6,63.2,29.71,South,180,17.0,20.0,83,0.00,,---,0.00,0.00,VWS V14.01,2013-05-26 08:30:00,
2013-05-26 03:35:00,68.6,63.2,29.71,South,180,18.0,21.0,83,0.00,,---,0.00,0.00,VWS V14.01,2013-05-26 08:35:00,
2013-05-26 03:40:00,68.4,63.4,29.71,South,180,20.0,27.0,84,0.00,,---,0.00,0.00,VWS V14.01,2013-05-26 08:40:00,
2013-05-26 03:45:00,68.4,63.4,29.70,South,180,18.0,25.0,84,0.00,,---,0.00,0.00,VWS V14.01,2013-05-26 08:45:00,
2013-05-26 03:50:00,68.3,63.3,29.70,South,180,17.0,25.0,84,0.00,,---,0.00,0.00,VWS V14.01,2013-05-26 08:50:00,
2013-05-26 03:55:00,68.3,63.6,29.70,South,180,19.0,22.0,85,0.00,,---,0.00,0.00,VWS V14.01,2013-05-26 08:55:00,
2013-05-26 04:00:00,68.1,63.4,29.68,South,180,18.0,26.0,85,0.00,,---,0.00,0.00,VWS V14.01,2013-05-26 09:00:00,
2013-05-26 04:05:00,68.1,63.4,29.68,South,180,18.0,25.0,85,0.00,,---,0.00,0.00,VWS V14.01,2013-05-26 09:05:00,
2013-05-26 04:10:00,68.1,63.8,29.68,South,180,21.0,26.0,86,0.00,,---,0.00,0.00,VWS V14.01,2013-05-26 09:10:00,
2013-05-26 04:15:00,67.9,63.6,29.67,South,180,22.0,28.0,86,0.00,,---,0.00,0.00,VWS V14.01,2013-05-26 09:15:00,
2013-05-26 04:20:00,67.9,63.6,29.67,South,180,21.0,31.0,86,0.00,,---,0.00,0.00,VWS V14.01,2013-05-26 09:20:00,
2013-05-26 04:25:00,67.9,63.6,29.67,South,180,21.0,26.0,86,0.00,,---,0.00,0.00,VWS V14.01,2013-05-26 09:25:00,
2013-05-26 04:30:00,68.1,63.8,29.67,South,180,22.0,29.0,86,0.00,,---,0.00,0.00,VWS V14.01,2013-05-26 09:30:00,
2013-05-26 04:35:00,68.1,63.8,29.67,South,180,19.0,28.0,86,0.00,,---,0.00,0.00,VWS V14.01,2013-05-26 09:35:00,
2013-05-26 04:40:00,68.1,64.1,29.67,South,180,23.0,37.0,87,0.00,,---,0.00,0.00,VWS V14.01,2013-05-26 09:40:00,
2013-05-26 04:45:00,67.9,63.9,29.67,South,180,23.0,35.0,87,0.00,,---,0.00,0.00,VWS V14.01,2013-05-26 09:45:00,
2013-05-26 04:50:00,68.1,64.1,29.67,South,180,24.0,31.0,87,0.00,,---,0.00,0.00,VWS V14.01,2013-05-26 09:50:00,
2013-05-26 04:55:00,68.1,64.1,29.67,South,180,23.0,33.0,87,0.00,,---,0.00,0.00,VWS V14.01,2013-05-26 09:55:00,
2013-05-26 05:00:00,68.1,64.1,29.67,South,180,23.0,32.0,87,0.00,,---,0.00,0.00,VWS V14.01,2013-05-26 10:00:00,
2013-05-26 05:05:00,68.1,64.1,29.67,South,180,25.0,32.0,87,0.00,,---,0.00,0.00,VWS V14.01,2013-05-26 10:05:00,
2013-05-26 05:10:00,68.1,64.1,29.67,South,180,24.0,32.0,87,0.00,,---,0.00,0.00,VWS V14.01,2013-05-26 10:10:00,
2013-05-26 05:15:00,67.9,63.6,29.67,South,180,18.0,27.0,86,0.00,,---,0.00,0.00,VWS V14.01,2013-05-26 10:15:00,
2013-05-26 05:20:00,67.8,63.5,29.67,South,180,23.0,32.0,86,0.00,,---,0.00,0.00,VWS V14.01,2013-05-26 10:20:00,
2013-05-26 05:25:00,67.8,63.5,29.67,South,180,23.0,31.0,86,0.00,,---,0.00,0.00,VWS V14.01,2013-05-26 10:25:00,
2013-05-26 05:30:00,67.8,63.5,29.66,South,180,23.0,30.0,86,0.00,,---,0.00,0.00,VWS V14.01,2013-05-26 10:30:00,
2013-05-26 05:35:00,67.6,63.6,29.66,South,180,21.0,26.0,87,0.00,,---,0.00,0.00,VWS V14.01,2013-05-26 10:35:00,
2013-05-26 05:40:00,67.6,63.6,29.66,South,180,21.0,31.0,87,0.00,,---,0.00,0.00,VWS V14.01,2013-05-26 10:40:00,
2013-05-26 05:45:00,67.6,63.6,29.67,South,180,20.0,28.0,87,0.00,,---,0.00,0.00,VWS V14.01,2013-05-26 10:45:00,
2013-05-26 05:50:00,67.6,63.6,29.67,South,180,22.0,29.0,87,0.00,,---,0.00,0.00,VWS V14.01,2013-05-26 10:50:00,
2013-05-26 05:55:00,67.6,63.6,29.67,SSW,202,22.0,32.0,87,0.00,,---,0.00,0.00,VWS V14.01,2013-05-26 10:55:00,
2013-05-26 06:00:00,67.4,63.7,29.67,South,180,22.0,29.0,88,0.00,,---,0.00,0.00,VWS V14.01,2013-05-26 11:00:00,
2013-05-26 06:05:00,67.4,63.7,29.67,SW,225,21.0,29.0,88,0.00,,---,0.00,0.00,VWS V14.01,2013-05-26 11:05:00,
2013-05-26 06:10:00,67.4,63.4,29.67,South,180,26.0,37.0,87,0.00,,---,0.00,0.00,VWS V14.01,2013-05-26 11:10:00,
2013-05-26 06:15:00,67.4,63.4,29.68,South,180,24.0,34.0,87,0.00,,---,0.00,0.00,VWS V14.01,2013-05-26 11:15:00,
2013-05-26 06:20:00,67.4,63.4,29.68,South,180,23.0,31.0,87,0.00,,---,0.00,0.00,VWS V14.01,2013-05-26 11:20:00,
2013-05-26 06:25:00,67.4,63.4,29.68,South,180,21.0,30.0,87,0.00,,---,0.00,0.00,VWS V14.01,2013-05-26 11:25:00,
2013-05-26 06:30:00,67.3,63.3,29.68,South,180,22.0,31.0,87,0.00,,---,0.00,0.00,VWS V14.01,2013-05-26 11:30:00,
2013-05-26 06:35:00,67.3,63.6,29.68,South,180,20.0,29.0,88,0.00,,---,0.00,0.00,VWS V14.01,2013-05-26 11:35:00,
2013-05-26 06:40:00,67.3,63.6,29.68,South,180,23.0,29.0,88,0.00,,---,0.00,0.00,VWS V14.01,2013-05-26 11:40:00,
2013-05-26 06:45:00,67.3,63.6,29.68,South,180,18.0,24.0,88,0.00,,---,0.00,0.00,VWS V14.01,2013-05-26 11:45:00,
2013-05-26 06:50:00,67.3,64.0,29.68,SSW,202,15.0,21.0,89,0.00,,---,0.00,0.00,VWS V14.01,2013-05-26 11:50:00,
2013-05-26 06:55:00,67.3,64.0,29.68,South,180,17.0,21.0,89,0.00,,---,0.00,12.00,VWS V14.01,2013-05-26 11:55:00,
2013-05-26 07:00:00,67.3,64.0,29.69,South,180,16.0,21.0,89,0.00,,---,0.00,12.00,VWS V14.01,2013-05-26 12:00:00,
2013-05-26 07:05:00,67.3,64.0,29.69,South,180,15.0,22.0,89,0.00,,---,0.00,12.00,VWS V14.01,2013-05-26 12:05:00,
2013-05-26 07:10:00,67.3,64.0,29.69,SSE,158,11.0,20.0,89,0.00,,---,0.00,12.00,VWS V14.01,2013-05-26 12:10:00,
2013-05-26 07:15:00,67.3,64.0,29.68,SSE,158,13.0,21.0,89,0.00,,---,0.00,12.00,VWS V14.01,2013-05-26 12:15:00,
2013-05-26 07:20:00,67.3,64.0,29.68,South,180,13.0,21.0,89,0.00,,---,0.00,12.00,VWS V14.01,2013-05-26 12:20:00,
2013-05-26 07:25:00,67.4,64.1,29.68,South,180,13.0,20.0,89,0.00,,---,0.00,42.00,VWS V14.01,2013-05-26 12:25:00,
2013-05-26 07:30:00,67.6,64.2,29.69,South,180,15.0,19.0,89,0.00,,---,0.00,40.00,VWS V14.01,2013-05-26 12:30:00,
2013-05-26 07:35:00,67.6,64.2,29.69,South,180,16.0,22.0,89,0.00,,---,0.00,32.00,VWS V14.01,2013-05-26 12:35:00,
2013-05-26 07:40:00,67.6,64.2,29.69,SW,225,15.0,20.0,89,0.00,,---,0.00,25.00,VWS V14.01,2013-05-26 12:40:00,
2013-05-26 07:45:00,67.6,64.2,29.68,South,180,15.0,21.0,89,0.00,,---,0.00,33.00,VWS V14.01,2013-05-26 12:45:00,
2013-05-26 07:50:00,67.6,64.2,29.68,South,180,21.0,26.0,89,0.00,,---,0.00,56.00,VWS V14.01,2013-05-26 12:50:00,
2013-05-26 07:55:00,67.8,64.4,29.68,South,180,17.0,26.0,89,0.00,,---,0.00,87.00,VWS V14.01,2013-05-26 12:55:00,
2013-05-26 08:00:00,67.8,64.4,29.66,South,180,18.0,29.0,89,0.00,,---,0.00,106.00,VWS V14.01,2013-05-26 13:00:00,
2013-05-26 08:05:00,68.1,64.7,29.66,SSE,158,14.0,25.0,89,0.00,,---,0.00,118.00,VWS V14.01,2013-05-26 13:05:00,
2013-05-26 08:10:00,68.1,64.7,29.66,SSE,158,17.0,28.0,89,0.00,,---,0.00,111.00,VWS V14.01,2013-05-26 13:10:00,
2013-05-26 08:15:00,68.1,64.4,29.67,South,180,20.0,32.0,88,0.00,,---,0.00,107.00,VWS V14.01,2013-05-26 13:15:00,
2013-05-26 08:20:00,68.3,64.6,29.67,South,180,13.0,22.0,88,0.00,,---,0.00,87.00,VWS V14.01,2013-05-26 13:20:00,
2013-05-26 08:25:00,68.1,64.4,29.67,South,180,19.0,28.0,88,0.00,,---,0.00,76.00,VWS V14.01,2013-05-26 13:25:00,
2013-05-26 08:30:00,68.1,64.4,29.67,SSE,158,18.0,26.0,88,0.00,,---,0.00,63.00,VWS V14.01,2013-05-26 13:30:00,
2013-05-26 08:35:00,68.1,64.4,29.67,SSE,158,15.0,18.0,88,0.00,,---,0.00,81.00,VWS V14.01,2013-05-26 13:35:00,
2013-05-26 08:40:00,68.3,64.9,29.67,SSE,158,16.0,26.0,89,0.00,,---,0.00,102.00,VWS V14.01,2013-05-26 13:40:00,
2013-05-26 08:45:00,68.3,64.6,29.66,SSE,158,18.0,25.0,88,0.00,,---,0.00,99.00,VWS V14.01,2013-05-26 13:45:00,
2013-05-26 08:50:00,68.4,64.7,29.66,SSE,158,18.0,26.0,88,0.00,,---,0.00,90.00,VWS V14.01,2013-05-26 13:50:00,
2013-05-26 08:55:00,68.4,64.7,29.66,SSE,158,21.0,28.0,88,0.00,,---,0.00,121.00,VWS V14.01,2013-05-26 13:55:00,
2013-05-26 09:00:00,68.8,65.1,29.65,South,180,21.0,32.0,88,0.00,,---,0.00,153.00,VWS V14.01,2013-05-26 14:00:00,
2013-05-26 09:05:00,68.9,65.2,29.65,South,180,26.0,30.0,88,0.00,,---,0.00,179.00,VWS V14.01,2013-05-26 14:05:00,
2013-05-26 09:10:00,68.9,64.9,29.65,South,180,24.0,32.0,87,0.00,,---,0.00,194.00,VWS V14.01,2013-05-26 14:10:00,
2013-05-26 09:15:00,69.1,65.1,29.65,South,180,23.0,31.0,87,0.00,,---,0.00,220.00,VWS V14.01,2013-05-26 14:15:00,
2013-05-26 09:20:00,69.3,64.9,29.65,South,180,27.0,34.0,86,0.00,,---,0.00,223.00,VWS V14.01,2013-05-26 14:20:00,
2013-05-26 09:25:00,69.6,65.2,29.65,South,180,28.0,32.0,86,0.00,,---,0.00,234.00,VWS V14.01,2013-05-26 14:25:00,
2013-05-26 09:30:00,69.6,65.2,29.67,South,180,25.0,36.0,86,0.00,,---,0.00,205.00,VWS V14.01,2013-05-26 14:30:00,
2013-05-26 09:35:00,69.6,64.9,29.67,South,180,26.0,37.0,85,0.00,,---,0.00,179.00,VWS V14.01,2013-05-26 14:35:00,
2013-05-26 09:40:00,69.8,65.1,29.67,South,180,23.0,33.0,85,0.00,,---,0.00,179.00,VWS V14.01,2013-05-26 14:40:00,
2013-05-26 09:45:00,69.8,65.1,29.68,South,180,23.0,35.0,85,0.00,,---,0.00,166.00,VWS V14.01,2013-05-26 14:45:00,
2013-05-26 09:50:00,69.8,65.1,29.68,South,180,23.0,33.0,85,0.00,,---,0.00,151.00,VWS V14.01,2013-05-26 14:50:00,
2013-05-26 09:55:00,69.9,65.2,29.68,South,180,19.0,30.0,85,0.00,,---,0.00,164.00,VWS V14.01,2013-05-26 14:55:00,
2013-05-26 10:00:00,69.9,65.2,29.68,South,180,20.0,28.0,85,0.00,,---,0.00,164.00,VWS V14.01,2013-05-26 15:00:00,
2013-05-26 10:05:00,70.1,65.4,29.68,South,180,24.0,30.0,85,0.00,,---,0.00,172.00,VWS V14.01,2013-05-26 15:05:00,
2013-05-26 10:10:00,70.3,65.6,29.68,South,180,22.0,30.0,85,0.00,,---,0.00,172.00,VWS V14.01,2013-05-26 15:10:00,
2013-05-26 10:15:00,70.3,65.6,29.70,South,180,21.0,27.0,85,0.00,,---,0.00,172.00,VWS V14.01,2013-05-26 15:15:00,
2013-05-26 10:20:00,70.3,65.6,29.70,South,180,23.0,30.0,85,0.00,,---,0.00,145.00,VWS V14.01,2013-05-26 15:20:00,
2013-05-26 10:25:00,70.3,65.2,29.70,South,180,23.0,28.0,84,0.00,,---,0.00,139.00,VWS V14.01,2013-05-26 15:25:00,
2013-05-26 10:30:00,70.4,65.3,29.70,SSW,202,25.0,30.0,84,0.00,,---,0.00,160.00,VWS V14.01,2013-05-26 15:30:00,
2013-05-26 10:35:00,70.4,65.3,29.70,South,180,19.0,26.0,84,0.00,,---,0.00,160.00,VWS V14.01,2013-05-26 15:35:00,
2013-05-26 10:40:00,70.4,65.3,29.70,South,180,21.0,28.0,84,0.00,,---,0.00,97.00,VWS V14.01,2013-05-26 15:40:00,
2013-05-26 10:45:00,70.4,65.7,29.70,South,180,19.0,27.0,85,0.00,,---,0.00,106.00,VWS V14.01,2013-05-26 15:45:00,
2013-05-26 10:50:00,70.6,65.5,29.70,South,180,17.0,24.0,84,0.00,,---,0.00,107.00,VWS V14.01,2013-05-26 15:50:00,
2013-05-26 10:55:00,70.8,65.7,29.70,South,180,20.0,25.0,84,0.00,,---,0.00,106.00,VWS V14.01,2013-05-26 15:55:00,
2013-05-26 11:00:00,71.1,66.0,29.70,South,180,21.0,31.0,84,0.00,,---,0.00,176.00,VWS V14.01,2013-05-26 16:00:00,
2013-05-26 11:05:00,71.3,65.9,29.70,South,180,18.0,26.0,83,0.00,,---,0.00,189.00,VWS V14.01,2013-05-26 16:05:00,
2013-05-26 11:10:00,71.6,65.8,29.70,South,180,19.0,29.0,82,0.00,,---,0.00,192.00,VWS V14.01,2013-05-26 16:10:00,
2013-05-26 11:15:00,71.8,65.7,29.70,South,180,20.0,29.0,81,0.00,,---,0.00,194.00,VWS V14.01,2013-05-26 16:15:00,
2013-05-26 11:20:00,72.0,65.9,29.70,South,180,18.0,27.0,81,0.00,,---,0.00,151.00,VWS V14.01,2013-05-26 16:20:00,
2013-05-26 11:25:00,72.1,65.9,29.70,South,180,18.0,27.0,81,0.00,,---,0.00,150.00,VWS V14.01,2013-05-26 16:25:00,
2013-05-26 11:30:00,72.1,65.9,29.70,South,180,19.0,29.0,81,0.00,,---,0.00,186.00,VWS V14.01,2013-05-26 16:30:00,
2013-05-26 11:35:00,72.3,66.2,29.70,South,180,19.0,27.0,81,0.00,,---,0.00,215.00,VWS V14.01,2013-05-26 16:35:00,
2013-05-26 11:40:00,72.5,66.3,29.70,SSW,202,14.0,16.0,81,0.00,,---,0.00,213.00,VWS V14.01,2013-05-26 16:40:00,
2013-05-26 11:45:00,72.8,66.3,29.70,South,180,15.0,24.0,80,0.00,,---,0.00,212.00,VWS V14.01,2013-05-26 16:45:00,
2013-05-26 11:50:00,72.8,66.3,29.70,South,180,19.0,24.0,80,0.00,,---,0.00,183.00,VWS V14.01,2013-05-26 16:50:00,
2013-05-26 11:55:00,73.0,66.5,29.70,South,180,15.0,22.0,80,0.00,,---,0.00,222.00,VWS V14.01,2013-05-26 16:55:00,
2013-05-26 12:00:00,73.0,66.5,29.69,SSE,158,14.0,21.0,80,0.00,,---,0.00,216.00,VWS V14.01,2013-05-26 17:00:00,
2013-05-26 12:05:00,73.3,66.8,29.69,SSE,158,16.0,21.0,80,0.00,,---,0.00,216.00,VWS V14.01,2013-05-26 17:05:00,
2013-05-26 12:10:00,74.0,67.1,29.69,South,180,11.0,17.0,79,0.00,,---,0.00,366.00,VWS V14.01,2013-05-26 17:10:00,
2013-05-26 12:15:00,74.4,66.7,29.68,SSE,158,15.0,21.0,77,0.00,,---,0.00,366.00,VWS V14.01,2013-05-26 17:15:00,
2013-05-26 12:20:00,74.6,66.9,29.68,SSE,158,15.0,20.0,77,0.00,,---,0.00,431.00,VWS V14.01,2013-05-26 17:20:00,
2013-05-26 12:25:00,75.1,67.0,29.68,SSE,158,14.0,21.0,76,0.00,,---,0.00,415.00,VWS V14.01,2013-05-26 17:25:00,
2013-05-26 12:30:00,75.3,67.2,29.68,SSE,158,13.0,21.0,76,0.00,,---,0.00,417.00,VWS V14.01,2013-05-26 17:30:00,
2013-05-26 12:35:00,75.6,67.1,29.68,South,180,14.0,19.0,75,0.00,,---,0.00,417.00,VWS V14.01,2013-05-26 17:35:00,
2013-05-26 12:40:00,75.8,67.3,29.68,South,180,15.0,21.0,75,0.00,,---,0.00,417.00,VWS V14.01,2013-05-26 17:40:00,
2013-05-26 12:45:00,76.3,67.4,29.67,SSE,158,14.0,22.0,74,0.00,,---,0.00,563.00,VWS V14.01,2013-05-26 17:45:00,
2013-05-26 12:50:00,76.7,67.8,29.67,South,180,15.0,27.0,74,0.00,,---,0.00,563.00,VWS V14.01,2013-05-26 17:50:00,
2013-05-26 12:55:00,77.2,67.5,29.67,South,180,16.0,25.0,72,0.00,,---,0.00,563.00,VWS V14.01,2013-05-26 17:55:00,
2013-05-26 13:00:00,77.4,67.3,29.66,South,180,14.0,25.0,71,0.00,,---,0.00,563.00,VWS V14.01,2013-05-26 18:00:00,
2013-05-26 13:05:00,77.9,67.8,29.66,SSE,158,16.0,30.0,71,0.00,,---,0.00,788.00,VWS V14.01,2013-05-26 18:05:00,
2013-05-26 13:10:00,78.1,67.9,29.66,South,180,16.0,34.0,71,0.00,,---,0.00,458.00,VWS V14.01,2013-05-26 18:10:00,
2013-05-26 13:15:00,78.1,67.1,29.66,SSE,158,16.0,21.0,69,0.00,,---,0.00,440.00,VWS V14.01,2013-05-26 18:15:00,
2013-05-26 13:20:00,78.5,67.9,29.66,South,180,19.0,30.0,70,0.00,,---,0.00,711.00,VWS V14.01,2013-05-26 18:20:00,
2013-05-26 13:25:00,78.3,67.3,29.66,South,180,17.0,27.0,69,0.00,,---,0.00,354.00,VWS V14.01,2013-05-26 18:25:00,
2013-05-26 13:30:00,78.5,67.5,29.65,South,180,19.0,28.0,69,0.00,,---,0.00,321.00,VWS V14.01,2013-05-26 18:30:00,
2013-05-26 13:35:00,78.8,67.8,29.65,SSW,202,19.0,29.0,69,0.00,,---,0.00,355.00,VWS V14.01,2013-05-26 18:35:00,
2013-05-26 13:40:00,79.6,68.1,29.65,SSE,158,15.0,20.0,68,0.00,,---,0.00,355.00,VWS V14.01,2013-05-26 18:40:00,
2013-05-26 13:45:00,79.9,68.4,29.64,South,180,14.0,26.0,68,0.00,,---,0.00,355.00,VWS V14.01,2013-05-26 18:45:00,
2013-05-26 13:50:00,80.3,67.9,29.64,South,180,16.0,26.0,66,0.00,,---,0.00,424.00,VWS V14.01,2013-05-26 18:50:00,
2013-05-26 13:55:00,80.3,67.5,29.64,South,180,17.0,30.0,65,0.00,,---,0.00,424.00,VWS V14.01,2013-05-26 18:55:00,
2013-05-26 14:00:00,80.3,67.9,29.64,SW,225,16.0,24.0,66,0.00,,---,0.00,424.00,VWS V14.01,2013-05-26 19:00:00,
2013-05-26 14:05:00,80.7,67.8,29.64,SW,225,15.0,24.0,65,0.00,,---,0.00,424.00,VWS V14.01,2013-05-26 19:05:00,
2013-05-26 14:10:00,81.2,67.9,29.64,SSW,202,18.0,26.0,64,0.00,,---,0.00,906.00,VWS V14.01,2013-05-26 19:10:00,
2013-05-26 14:15:00,81.4,68.5,29.64,SSW,202,13.0,24.0,65,0.00,,---,0.00,977.00,VWS V14.01,2013-05-26 19:15:00,
2013-05-26 14:20:00,81.4,67.6,29.64,North,0,18.0,27.0,63,0.00,,---,0.00,977.00,VWS V14.01,2013-05-26 19:20:00,
2013-05-26 14:25:00,81.2,67.9,29.64,North,0,14.0,22.0,64,0.00,,---,0.00,977.00,VWS V14.01,2013-05-26 19:25:00,
2013-05-26 14:30:00,81.1,67.3,29.63,North,0,17.0,26.0,63,0.00,,---,0.00,575.00,VWS V14.01,2013-05-26 19:30:00,
2013-05-26 14:35:00,81.6,68.2,29.63,SSW,202,20.0,31.0,64,0.00,,---,0.00,931.00,VWS V14.01,2013-05-26 19:35:00,
2013-05-26 14:40:00,81.8,67.5,29.63,SW,225,16.0,28.0,62,0.00,,---,0.00,981.00,VWS V14.01,2013-05-26 19:40:00,
2013-05-26 14:45:00,81.6,67.8,29.62,South,180,18.0,30.0,63,0.00,,---,0.00,989.00,VWS V14.01,2013-05-26 19:45:00,
2013-05-26 14:50:00,81.6,67.8,29.62,NNW,338,16.0,30.0,63,0.00,,---,0.00,944.00,VWS V14.01,2013-05-26 19:50:00,
2013-05-26 14:55:00,82.0,67.7,29.62,South,180,21.0,29.0,62,0.00,,---,0.00,931.00,VWS V14.01,2013-05-26 19:55:00,
2013-05-26 15:00:00,82.0,67.7,29.63,SSW,202,26.0,30.0,62,0.00,,---,0.00,957.00,VWS V14.01,2013-05-26 20:00:00,
2013-05-26 15:05:00,82.2,67.9,29.63,SSW,202,24.0,34.0,62,0.00,,---,0.00,985.00,VWS V14.01,2013-05-26 20:05:00,
2013-05-26 15:10:00,81.8,67.5,29.63,SSW,202,15.0,22.0,62,0.00,,---,0.00,544.00,VWS V14.01,2013-05-26 20:10:00,
2013-05-26 15:15:00,81.8,67.5,29.63,SSW,202,23.0,32.0,62,0.00,,---,0.00,389.00,VWS V14.01,2013-05-26 20:15:00,
2013-05-26 15:20:00,82.4,68.1,29.63,South,180,15.0,26.0,62,0.00,,---,0.00,389.00,VWS V14.01,2013-05-26 20:20:00,
2013-05-26 15:25:00,82.6,68.3,29.63,North,0,14.0,19.0,62,0.00,,---,0.00,389.00,VWS V14.01,2013-05-26 20:25:00,
2013-05-26 15:30:00,82.2,67.9,29.62,North,0,17.0,26.0,62,0.00,,---,0.00,389.00,VWS V14.01,2013-05-26 20:30:00,
2013-05-26 15:35:00,82.0,67.7,29.62,North,0,12.0,16.0,62,0.00,,---,0.00,389.00,VWS V14.01,2013-05-26 20:35:00,
2013-05-26 15:40:00,82.4,68.1,29.62,North,0,16.0,22.0,62,0.00,,---,0.00,389.00,VWS V14.01,2013-05-26 20:40:00,
2013-05-26 15:45:00,81.6,67.8,29.62,North,0,16.0,24.0,63,0.00,,---,0.00,318.00,VWS V14.01,2013-05-26 20:45:00,
2013-05-26 15:50:00,82.6,67.8,29.62,SW,225,14.0,21.0,61,0.00,,---,0.00,873.00,VWS V14.01,2013-05-26 20:50:00,
2013-05-26 15:55:00,83.4,68.6,29.62,NNW,338,15.0,21.0,61,0.00,,---,0.00,873.00,VWS V14.01,2013-05-26 20:55:00,
2013-05-26 16:00:00,83.0,68.2,29.61,North,0,15.0,24.0,61,0.00,,---,0.00,873.00,VWS V14.01,2013-05-26 21:00:00,
2013-05-26 16:05:00,82.8,68.0,29.61,SW,225,17.0,28.0,61,0.00,,---,0.00,552.00,VWS V14.01,2013-05-26 21:05:00,
2013-05-26 16:10:00,82.6,67.8,29.61,WSW,248,18.0,29.0,61,0.00,,---,0.00,552.00,VWS V14.01,2013-05-26 21:10:00,
2013-05-26 16:15:00,82.4,68.1,29.61,WSW,248,16.0,27.0,62,0.00,,---,0.00,420.00,VWS V14.01,2013-05-26 21:15:00,
2013-05-26 16:20:00,83.0,68.2,29.61,NNW,338,17.0,31.0,61,0.00,,---,0.00,845.00,VWS V14.01,2013-05-26 21:20:00,
2013-05-26 16:25:00,82.6,67.8,29.61,SW,225,20.0,34.0,61,0.00,,---,0.00,287.00,VWS V14.01,2013-05-26 21:25:00,
2013-05-26 16:30:00,83.2,67.9,29.61,NW,315,14.0,21.0,60,0.00,,---,0.00,803.00,VWS V14.01,2013-05-26 21:30:00,
2013-05-26 16:35:00,82.8,67.5,29.61,North,0,13.0,18.0,60,0.00,,---,0.00,792.00,VWS V14.01,2013-05-26 21:35:00,
2013-05-26 16:40:00,83.2,68.4,29.61,SW,225,20.0,26.0,61,0.00,,---,0.00,748.00,VWS V14.01,2013-05-26 21:40:00,
2013-05-26 16:45:00,83.2,67.4,29.60,SSW,202,19.0,26.0,59,0.00,,---,0.00,748.00,VWS V14.01,2013-05-26 21:45:00,
2013-05-26 16:50:00,83.2,67.9,29.60,West,270,14.0,24.0,60,0.00,,---,0.00,748.00,VWS V14.01,2013-05-26 21:50:00,
2013-05-26 16:55:00,83.4,68.1,29.60,West,270,14.0,24.0,60,0.00,,---,0.00,663.00,VWS V14.01,2013-05-26 21:55:00,
2013-05-26 17:00:00,83.2,67.4,29.60,North,0,15.0,21.0,59,0.00,,---,0.00,656.00,VWS V14.01,2013-05-26 22:00:00,
2013-05-26 17:05:00,83.4,68.1,29.60,North,0,14.0,21.0,60,0.00,,---,0.00,656.00,VWS V14.01,2013-05-26 22:05:00,
2013-05-26 17:10:00,83.2,68.8,29.60,North,0,12.0,22.0,62,0.00,,---,0.00,656.00,VWS V14.01,2013-05-26 22:10:00,
2013-05-26 17:15:00,83.4,68.1,29.59,NNW,338,14.0,19.0,60,0.00,,---,0.00,725.00,VWS V14.01,2013-05-26 22:15:00,
2013-05-26 17:20:00,83.0,68.2,29.59,North,0,12.0,20.0,61,0.00,,---,0.00,709.00,VWS V14.01,2013-05-26 22:20:00,
2013-05-26 17:25:00,82.8,68.0,29.59,North,0,15.0,24.0,61,0.00,,---,0.00,223.00,VWS V14.01,2013-05-26 22:25:00,
2013-05-26 17:30:00,83.0,68.2,29.59,North,0,15.0,19.0,61,0.00,,---,0.00,223.00,VWS V14.01,2013-05-26 22:30:00,
2013-05-26 17:35:00,82.6,67.8,29.59,North,0,16.0,28.0,61,0.00,,---,0.00,223.00,VWS V14.01,2013-05-26 22:35:00,
2013-05-26 17:40:00,82.8,68.0,29.59,WNW,292,18.0,30.0,61,0.00,,---,0.00,512.00,VWS V14.01,2013-05-26 22:40:00,
2013-05-26 17:45:00,82.8,67.0,29.60,North,0,17.0,29.0,59,0.00,,---,0.00,501.00,VWS V14.01,2013-05-26 22:45:00,
2013-05-26 17:50:00,82.4,67.6,29.60,North,0,14.0,21.0,61,0.00,,---,0.00,503.00,VWS V14.01,2013-05-26 22:50:00,
2013-05-26 17:55:00,82.4,67.1,29.60,North,0,19.0,29.0,60,0.00,,---,0.00,470.00,VWS V14.01,2013-05-26 22:55:00,
2013-05-26 18:00:00,82.4,67.6,29.59,NNW,338,20.0,29.0,61,0.00,,---,0.00,451.00,VWS V14.01,2013-05-26 23:00:00,
2013-05-26 18:05:00,82.0,66.8,29.59,West,270,22.0,29.0,60,0.00,,---,0.00,426.00,VWS V14.01,2013-05-26 23:05:00,
2013-05-26 18:10:00,82.0,67.2,29.59,SW,225,21.0,29.0,61,0.00,,---,0.00,426.00,VWS V14.01,2013-05-26 23:10:00,
2013-05-26 18:15:00,82.2,67.4,29.58,SW,225,15.0,22.0,61,0.00,,---,0.00,426.00,VWS V14.01,2013-05-26 23:15:00,
2013-05-26 18:20:00,82.2,67.4,29.58,SSW,202,27.0,31.0,61,0.00,,---,0.00,426.00,VWS V14.01,2013-05-26 23:20:00,
2013-05-26 18:25:00,81.8,66.6,29.58,WSW,248,21.0,27.0,60,0.00,,---,0.00,426.00,VWS V14.01,2013-05-26 23:25:00,
2013-05-26 18:30:00,81.8,67.1,29.58,SW,225,20.0,25.0,61,0.00,,---,0.00,340.00,VWS V14.01,2013-05-26 23:30:00,
2013-05-26 18:35:00,81.8,67.1,29.58,SSW,202,17.0,30.0,61,0.00,,---,0.00,340.00,VWS V14.01,2013-05-26 23:35:00,
2013-05-26 18:40:00,81.6,66.9,29.58,WSW,248,26.0,31.0,61,0.00,,---,0.00,312.00,VWS V14.01,2013-05-26 23:40:00,
2013-05-26 18:45:00,81.4,67.1,29.58,SSW,202,24.0,30.0,62,0.00,,---,0.00,289.00,VWS V14.01,2013-05-26 23:45:00,
2013-05-26 18:50:00,81.4,67.1,29.58,SSW,202,14.0,22.0,62,0.00,,---,0.00,276.00,VWS V14.01,2013-05-26 23:50:00,
2013-05-26 18:55:00,81.4,67.6,29.58,NW,315,20.0,30.0,63,0.00,,---,0.00,260.00,VWS V14.01,2013-05-26 23:55:00,
2013-05-26 19:00:00,81.1,67.3,29.58,SSW,202,15.0,27.0,63,0.00,,---,0.00,232.00,VWS V14.01,2013-05-27 00:00:00,
2013-05-26 19:05:00,80.9,67.6,29.58,West,270,16.0,21.0,64,0.00,,---,0.00,220.00,VWS V14.01,2013-05-27 00:05:00,
2013-05-26 19:10:00,80.7,67.4,29.58,SW,225,17.0,19.0,64,0.00,,---,0.00,220.00,VWS V14.01,2013-05-27 00:10:00,
2013-05-26 19:15:00,80.7,67.4,29.58,North,0,14.0,21.0,64,0.00,,---,0.00,183.00,VWS V14.01,2013-05-27 00:15:00,
2013-05-26 19:20:00,80.5,67.2,29.58,NNW,338,16.0,25.0,64,0.00,,---,0.00,175.00,VWS V14.01,2013-05-27 00:20:00,
2013-05-26 19:25:00,80.3,67.5,29.58,NNW,338,17.0,28.0,65,0.00,,---,0.00,163.00,VWS V14.01,2013-05-27 00:25:00,
2013-05-26 19:30:00,80.1,67.3,29.59,NNW,338,16.0,27.0,65,0.00,,---,0.00,144.00,VWS V14.01,2013-05-27 00:30:00,
2013-05-26 19:35:00,79.9,67.5,29.59,NW,315,13.0,21.0,66,0.00,,---,0.00,129.00,VWS V14.01,2013-05-27 00:35:00,
2013-05-26 19:40:00,79.8,67.9,29.59,West,270,12.0,19.0,67,0.00,,---,0.00,119.00,VWS V14.01,2013-05-27 00:40:00,
2013-05-26 19:45:00,79.6,67.7,29.58,SSW,202,17.0,26.0,67,0.00,,---,0.00,98.00,VWS V14.01,2013-05-27 00:45:00,
2013-05-26 19:50:00,79.4,67.5,29.58,NNW,338,13.0,16.0,67,0.00,,---,0.00,74.00,VWS V14.01,2013-05-27 00:50:00,
2013-05-26 19:55:00,79.2,67.7,29.58,North,0,16.0,21.0,68,0.00,,---,0.00,74.00,VWS V14.01,2013-05-27 00:55:00,
2013-05-26 20:00:00,78.8,67.4,29.59,WSW,248,14.0,21.0,68,0.00,,---,0.00,42.00,VWS V14.01,2013-05-27 01:00:00,
2013-05-26 20:05:00,78.6,67.6,29.59,WSW,248,13.0,16.0,69,0.00,,---,0.00,42.00,VWS V14.01,2013-05-27 01:05:00,
2013-05-26 20:10:00,78.5,67.5,29.59,North,0,11.0,21.0,69,0.00,,---,0.00,30.00,VWS V14.01,2013-05-27 01:10:00,
2013-05-26 20:15:00,78.3,67.3,29.58,North,0,14.0,19.0,69,0.00,,---,0.00,26.00,VWS V14.01,2013-05-27 01:15:00,
2013-05-26 20:20:00,77.9,66.9,29.58,North,0,15.0,24.0,69,0.00,,---,0.00,23.00,VWS V14.01,2013-05-27 01:20:00,
2013-05-26 20:25:00,77.7,66.7,29.58,North,0,16.0,24.0,69,0.00,,---,0.00,23.00,VWS V14.01,2013-05-27 01:25:00,
2013-05-26 20:30:00,77.6,66.6,29.58,NW,315,15.0,24.0,69,0.00,,---,0.00,9.00,VWS V14.01,2013-05-27 01:30:00,
2013-05-26 20:35:00,77.4,66.9,29.58,NNW,338,14.0,19.0,70,0.00,,---,0.00,3.00,VWS V14.01,2013-05-27 01:35:00,
2013-05-26 20:40:00,77.2,66.7,29.58,North,0,11.0,14.0,70,0.00,,---,0.00,0.00,VWS V14.01,2013-05-27 01:40:00,
2013-05-26 20:45:00,76.7,67.0,29.58,North,0,12.0,18.0,72,0.00,,---,0.00,0.00,VWS V14.01,2013-05-27 01:45:00,
2013-05-26 20:50:00,76.5,67.2,29.58,NNW,338,12.0,19.0,73,0.00,,---,0.00,0.00,VWS V14.01,2013-05-27 01:50:00,
2013-05-26 20:55:00,76.5,67.2,29.58,NNW,338,14.0,20.0,73,0.00,,---,0.00,0.00,VWS V14.01,2013-05-27 01:55:00,
2013-05-26 21:00:00,76.3,67.0,29.58,North,0,13.0,24.0,73,0.00,,---,0.00,0.00,VWS V14.01,2013-05-27 02:00:00,
2013-05-26 21:05:00,76.5,66.8,29.58,North,0,14.0,26.0,72,0.00,,---,0.00,0.00,VWS V14.01,2013-05-27 02:05:00,
2013-05-26 21:10:00,76.3,66.6,29.58,North,0,14.0,25.0,72,0.00,,---,0.00,0.00,VWS V14.01,2013-05-27 02:10:00,
2013-05-26 21:15:00,76.3,66.6,29.58,North,0,15.0,25.0,72,0.00,,---,0.00,0.00,VWS V14.01,2013-05-27 02:15:00,
2013-05-26 21:20:00,76.1,66.8,29.58,North,0,12.0,19.0,73,0.00,,---,0.00,0.00,VWS V14.01,2013-05-27 02:20:00,
2013-05-26 21:25:00,75.8,66.5,29.58,North,0,10.0,16.0,73,0.00,,---,0.00,0.00,VWS V14.01,2013-05-27 02:25:00,
2013-05-26 21:30:00,75.4,66.5,29.58,North,0,10.0,16.0,74,0.00,,---,0.00,0.00,VWS V14.01,2013-05-27 02:30:00,
2013-05-26 21:35:00,75.3,66.8,29.58,North,0,7.0,11.0,75,0.00,,---,0.00,0.00,VWS V14.01,2013-05-27 02:35:00,
2013-05-26 21:40:00,74.9,66.8,29.58,North,0,9.0,13.0,76,0.00,,---,0.00,0.00,VWS V14.01,2013-05-27 02:40:00,
2013-05-26 21:45:00,74.7,66.6,29.59,North,0,9.0,14.0,76,0.00,,---,0.00,0.00,VWS V14.01,2013-05-27 02:45:00,
2013-05-26 21:50:00,74.9,67.2,29.59,North,0,10.0,17.0,77,0.00,,---,0.00,0.00,VWS V14.01,2013-05-27 02:50:00,
2013-05-26 21:55:00,74.9,67.2,29.59,North,0,10.0,14.0,77,0.00,,---,0.00,0.00,VWS V14.01,2013-05-27 02:55:00,
2013-05-26 22:00:00,74.7,67.4,29.58,North,0,9.0,13.0,78,0.00,,---,0.00,0.00,VWS V14.01,2013-05-27 03:00:00,
2013-05-26 22:05:00,74.6,67.3,29.58,North,0,9.0,12.0,78,0.00,,---,0.00,0.00,VWS V14.01,2013-05-27 03:05:00,
2013-05-26 22:10:00,74.4,67.1,29.58,North,0,8.0,12.0,78,0.00,,---,0.00,0.00,VWS V14.01,2013-05-27 03:10:00,
2013-05-26 22:15:00,74.2,67.3,29.58,North,0,8.0,14.0,79,0.00,,---,0.00,0.00,VWS V14.01,2013-05-27 03:15:00,
2013-05-26 22:20:00,74.0,67.1,29.58,North,0,8.0,12.0,79,0.00,,---,0.00,0.00,VWS V14.01,2013-05-27 03:20:00,
2013-05-26 22:25:00,73.9,67.0,29.58,North,0,9.0,14.0,79,0.00,,---,0.00,0.00,VWS V14.01,2013-05-27 03:25:00,
2013-05-26 22:30:00,73.7,67.2,29.58,North,0,8.0,16.0,80,0.00,,---,0.00,0.00,VWS V14.01,2013-05-27 03:30:00,
2013-05-26 22:35:00,73.5,67.0,29.58,North,0,7.0,14.0,80,0.00,,---,0.00,0.00,VWS V14.01,2013-05-27 03:35:00,
2013-05-26 22:40:00,73.3,67.1,29.58,North,0,8.0,12.0,81,0.00,,---,0.00,0.00,VWS V14.01,2013-05-27 03:40:00,
2013-05-26 22:45:00,73.3,67.5,29.58,North,0,8.0,14.0,82,0.00,,---,0.00,0.00,VWS V14.01,2013-05-27 03:45:00,
2013-05-26 22:50:00,73.3,67.5,29.58,North,0,9.0,13.0,82,0.00,,---,0.00,0.00,VWS V14.01,2013-05-27 03:50:00,
2013-05-26 22:55:00,73.5,67.7,29.58,North,0,10.0,15.0,82,0.00,,---,0.00,0.00,VWS V14.01,2013-05-27 03:55:00,
2013-05-26 23:00:00,73.5,67.7,29.58,NNW,338,12.0,21.0,82,0.00,,---,0.00,0.00,VWS V14.01,2013-05-27 04:00:00,
2013-05-26 23:05:00,73.5,67.3,29.58,NW,315,12.0,18.0,81,0.00,,---,0.00,0.00,VWS V14.01,2013-05-27 04:05:00,
2013-05-26 23:10:00,73.5,67.3,29.58,North,0,12.0,16.0,81,0.00,,---,0.00,0.00,VWS V14.01,2013-05-27 04:10:00,
2013-05-26 23:15:00,73.7,67.5,29.57,North,0,13.0,18.0,81,0.00,,---,0.00,0.00,VWS V14.01,2013-05-27 04:15:00,
2013-05-26 23:20:00,73.7,67.5,29.57,North,0,13.0,18.0,81,0.00,,---,0.00,0.00,VWS V14.01,2013-05-27 04:20:00,
2013-05-26 23:25:00,73.7,67.5,29.57,North,0,10.0,13.0,81,0.00,,---,0.00,0.00,VWS V14.01,2013-05-27 04:25:00,
2013-05-26 23:30:00,73.7,67.5,29.57,North,0,12.0,16.0,81,0.00,,---,0.00,0.00,VWS V14.01,2013-05-27 04:30:00,
2013-05-26 23:35:00,73.7,67.5,29.57,North,0,14.0,19.0,81,0.00,,---,0.00,0.00,VWS V14.01,2013-05-27 04:35:00,
2013-05-26 23:40:00,73.7,67.5,29.57,NW,315,15.0,22.0,81,0.00,,---,0.00,0.00,VWS V14.01,2013-05-27 04:40:00,
2013-05-26 23:45:00,73.7,67.5,29.56,North,0,12.0,15.0,81,0.00,,---,0.00,0.00,VWS V14.01,2013-05-27 04:45:00,
2013-05-26 23:50:00,73.7,67.5,29.56,North,0,12.0,16.0,81,0.00,,---,0.00,0.00,VWS V14.01,2013-05-27 04:50:00,
2013-05-26 23:55:00,73.5,67.7,29.56,North,0,12.0,18.0,82,0.00,,---,0.00,0.00,VWS V14.01,2013-05-27 04:55:00,